createdAt,value
2022-09-26T00:01:12.912Z,70.88
2022-09-26T00:03:39.433Z,70.71
2022-09-26T00:06:08.308Z,71.12
2022-09-26T00:08:37.053Z,71.08
2022-09-26T00:11:05.881Z,71.48
2022-09-26T00:13:34.510Z,71.73
2022-09-26T00:16:01.122Z,71.62
2022-09-26T00:18:27.525Z,71.89
2022-09-26T00:20:54.158Z,72.11
2022-09-26T00:23:20.534Z,72.45
2022-09-26T00:25:51.528Z,72.56
2022-09-26T00:28:19.413Z,73.00
2022-09-26T00:30:46.006Z,72.94
2022-09-26T00:33:12.693Z,72.81
2022-09-26T00:35:39.238Z,72.94
2022-09-26T00:38:05.686Z,73.01
2022-09-26T00:40:32.989Z,72.88
2022-09-26T00:42:59.537Z,73.20
2022-09-26T00:45:30.461Z,73.15
2022-09-26T00:47:59.412Z,73.03
2022-09-26T00:50:30.672Z,73.09
2022-09-26T00:53:07.447Z,73.25
2022-09-26T00:55:38.527Z,73.06
2022-09-26T00:58:14.513Z,73.15
2022-09-26T01:00:43.621Z,73.15
2022-09-26T01:03:10.147Z,73.23
2022-09-26T01:05:37.827Z,73.48
2022-09-26T01:08:05.839Z,73.35
2022-09-26T01:10:35.244Z,73.55
2022-09-26T01:13:02.360Z,73.55
2022-09-26T01:15:29.974Z,73.69
2022-09-26T01:17:56.969Z,73.20
2022-09-26T01:20:25.655Z,73.33
2022-09-26T01:23:29.826Z,73.16
2022-09-26T01:26:14.378Z,72.82
2022-09-26T01:28:58.197Z,73.13
2022-09-26T01:32:27.327Z,73.11
2022-09-26T01:35:26.809Z,72.96
2022-09-26T01:38:32.454Z,72.91
2022-09-26T01:41:26.312Z,73.10
2022-09-26T01:44:26.378Z,73.46
2022-09-26T01:47:04.014Z,73.58
2022-09-26T01:49:55.915Z,73.71
2022-09-26T01:52:42.941Z,73.85
2022-09-26T01:55:15.098Z,73.79
2022-09-26T01:57:53.138Z,73.81
2022-09-26T02:00:19.986Z,74.06
2022-09-26T02:02:49.668Z,74.06
2022-09-26T02:05:46.809Z,73.71
2022-09-26T02:08:36.509Z,73.81
2022-09-26T02:11:12.997Z,73.61
2022-09-26T02:13:51.730Z,73.76
2022-09-26T02:16:23.561Z,73.83
2022-09-26T02:19:02.476Z,73.76
2022-09-26T02:21:28.901Z,73.71
2022-09-26T02:23:55.317Z,73.26
2022-09-26T02:26:23.095Z,73.73
2022-09-26T02:28:51.121Z,73.42
2022-09-26T02:31:23.489Z,73.28
2022-09-26T02:33:51.690Z,73.30
2022-09-26T02:36:19.878Z,73.31
2022-09-26T02:38:46.471Z,73.24
2022-09-26T02:42:01.144Z,73.43
2022-09-26T02:44:38.710Z,73.00
2022-09-26T02:47:18.300Z,73.12
2022-09-26T02:50:08.280Z,73.38
2022-09-26T02:52:48.430Z,73.35
2022-09-26T02:55:26.889Z,72.94
2022-09-26T02:58:21.170Z,72.79
2022-09-26T03:01:16.015Z,72.89
2022-09-26T03:03:54.067Z,72.84
2022-09-26T03:06:27.476Z,72.54
2022-09-26T03:08:56.637Z,72.43
2022-09-26T03:11:25.659Z,72.40
2022-09-26T03:13:56.169Z,72.46
2022-09-26T03:16:27.563Z,72.08
2022-09-26T03:19:14.397Z,72.10
2022-09-26T03:21:41.315Z,72.00
2022-09-26T03:24:08.071Z,71.77
2022-09-26T03:26:35.574Z,71.51
2022-09-26T03:29:03.516Z,71.59
2022-09-26T03:31:32.833Z,71.54
2022-09-26T03:34:05.672Z,71.34
2022-09-26T03:36:32.406Z,70.74
2022-09-26T03:39:00.729Z,70.81
2022-09-26T03:41:37.226Z,70.87
2022-09-26T03:44:17.434Z,70.97
2022-09-26T03:47:05.015Z,70.34
2022-09-26T03:49:36.211Z,70.38
2022-09-26T03:52:03.764Z,69.88
2022-09-26T03:54:30.537Z,70.20
2022-09-26T03:56:57.194Z,69.91
2022-09-26T03:59:23.583Z,69.49
2022-09-26T04:01:51.306Z,70.00
2022-09-26T04:04:17.684Z,69.17
2022-09-26T04:06:45.034Z,69.78
2022-09-26T04:09:16.750Z,69.79
2022-09-26T04:11:47.289Z,69.76
2022-09-26T04:14:13.885Z,70.12
2022-09-26T04:16:41.344Z,69.97
2022-09-26T04:19:26.590Z,70.14
2022-09-26T04:21:53.030Z,69.98
2022-09-26T04:24:21.241Z,69.93
2022-09-26T04:26:48.064Z,70.09
2022-09-26T04:29:15.322Z,69.85
2022-09-26T04:32:05.489Z,69.71
2022-09-26T04:35:04.097Z,69.76
2022-09-26T04:37:30.481Z,70.04
2022-09-26T04:39:57.116Z,69.81
2022-09-26T04:42:25.103Z,70.13
2022-09-26T04:44:51.504Z,70.20
2022-09-26T04:47:17.910Z,70.33
2022-09-26T04:50:02.686Z,70.29
2022-09-26T04:52:30.254Z,70.68
2022-09-26T04:54:56.701Z,70.76
2022-09-26T04:57:23.837Z,70.54
2022-09-26T04:59:50.333Z,70.17
2022-09-26T05:02:17.207Z,70.64
2022-09-26T05:04:44.120Z,70.64
2022-09-26T05:07:11.179Z,70.33
2022-09-26T05:09:37.746Z,70.34
2022-09-26T05:12:13.193Z,70.48
2022-09-26T05:14:44.258Z,70.05
2022-09-26T05:17:11.656Z,70.55
2022-09-26T05:19:39.002Z,70.60
2022-09-26T05:22:30.136Z,70.95
2022-09-26T05:25:15.140Z,70.99
2022-09-26T05:27:41.990Z,71.63
2022-09-26T05:30:08.890Z,71.32
2022-09-26T05:32:35.251Z,71.80
2022-09-26T05:35:05.125Z,71.46
2022-09-26T05:37:33.552Z,71.76
2022-09-26T05:40:18.874Z,71.60
2022-09-26T05:42:49.757Z,71.70
2022-09-26T05:45:16.208Z,71.71
2022-09-26T05:47:43.229Z,71.57
2022-09-26T05:50:10.761Z,71.75
2022-09-26T05:52:39.757Z,71.57
2022-09-26T05:55:08.547Z,71.48
2022-09-26T05:57:55.178Z,71.97
2022-09-26T06:00:26.393Z,71.15
2022-09-26T06:03:03.581Z,71.20
2022-09-26T06:05:43.181Z,71.28
2022-09-26T06:08:15.945Z,71.68
2022-09-26T06:10:50.451Z,71.25
2022-09-26T06:13:17.940Z,71.47
2022-09-26T06:15:49.839Z,71.40
2022-09-26T06:18:16.327Z,71.07
2022-09-26T06:20:42.708Z,70.90
2022-09-26T06:23:11.513Z,70.99
2022-09-26T06:25:39.585Z,70.92
2022-09-26T06:28:06.694Z,70.75
2022-09-26T06:30:34.176Z,71.20
2022-09-26T06:33:09.233Z,71.04
2022-09-26T06:36:06.364Z,70.81
2022-09-26T06:38:35.602Z,70.68
2022-09-26T06:41:04.808Z,70.42
2022-09-26T06:43:31.348Z,70.79
2022-09-26T06:46:09.576Z,70.46
2022-09-26T06:48:56.306Z,70.66
2022-09-26T06:51:46.687Z,70.31
2022-09-26T06:54:13.090Z,70.12
2022-09-26T06:56:39.441Z,70.23
2022-09-26T06:59:06.042Z,70.48
2022-09-26T07:01:34.704Z,70.62
2022-09-26T07:04:09.765Z,70.40
2022-09-26T07:06:44.563Z,70.58
2022-09-26T07:09:12.827Z,70.50
2022-09-26T07:12:13.446Z,70.51
2022-09-26T07:14:37.998Z,71.09
2022-09-26T07:17:24.828Z,71.01
2022-09-26T07:20:11.271Z,70.73
2022-09-26T07:23:05.222Z,71.04
2022-09-26T07:25:34.487Z,71.22
2022-09-26T07:28:02.159Z,71.19
2022-09-26T07:30:41.787Z,71.14
2022-09-26T07:33:14.830Z,71.15
2022-09-26T07:35:51.034Z,71.14
2022-09-26T07:38:18.841Z,70.93
2022-09-26T07:40:46.791Z,71.33
2022-09-26T07:43:20.158Z,71.36
2022-09-26T07:46:09.947Z,71.53
2022-09-26T07:48:56.320Z,72.48
2022-09-26T07:51:41.422Z,72.53
2022-09-26T07:54:13.036Z,72.24
2022-09-26T07:56:58.393Z,72.76
2022-09-26T07:59:35.653Z,73.03
2022-09-26T08:02:30.448Z,73.21
2022-09-26T08:05:00.923Z,73.32
2022-09-26T08:07:30.155Z,73.47
2022-09-26T08:10:23.273Z,73.93
2022-09-26T08:13:12.618Z,74.12
2022-09-26T08:16:06.025Z,74.21
2022-09-26T08:18:37.258Z,74.74
2022-09-26T08:21:07.242Z,74.45
2022-09-26T08:23:34.577Z,74.77
2022-09-26T08:26:21.142Z,75.07
2022-09-26T08:28:50.252Z,75.08
2022-09-26T08:31:17.316Z,75.13
2022-09-26T08:33:44.084Z,75.36
2022-09-26T08:36:12.753Z,75.37
2022-09-26T08:38:56.571Z,75.52
2022-09-26T08:42:23.734Z,75.60
2022-09-26T08:45:55.163Z,75.81
2022-09-26T08:48:47.992Z,76.35
2022-09-26T08:51:40.205Z,76.49
2022-09-26T08:54:18.171Z,76.31
2022-09-26T08:56:57.661Z,76.76
2022-09-26T08:59:43.525Z,77.25
2022-09-26T09:02:22.944Z,77.50
2022-09-26T09:05:06.633Z,77.64
2022-09-26T09:07:38.507Z,77.62
2022-09-26T09:10:11.198Z,77.80
2022-09-26T09:12:55.617Z,77.81
2022-09-26T09:15:58.530Z,77.77
2022-09-26T09:18:53.097Z,78.31
2022-09-26T09:22:07.361Z,77.82
2022-09-26T09:24:59.796Z,78.55
2022-09-26T09:28:02.523Z,78.72
2022-09-26T09:30:49.725Z,79.22
2022-09-26T09:33:47.410Z,78.41
2022-09-26T09:36:34.411Z,78.93
2022-09-26T09:39:32.009Z,78.26
2022-09-26T09:42:09.910Z,78.81
2022-09-26T09:44:46.731Z,79.15
2022-09-26T09:47:16.289Z,79.44
2022-09-26T09:49:44.662Z,79.42
2022-09-26T09:52:29.165Z,79.48
2022-09-26T09:55:23.031Z,79.71
2022-09-26T09:58:00.147Z,79.93
2022-09-26T10:00:27.675Z,80.00
2022-09-26T10:03:41.827Z,79.76
2022-09-26T10:06:46.457Z,79.89
2022-09-26T10:09:39.260Z,80.06
2022-09-26T10:12:17.209Z,79.80
2022-09-26T10:15:07.489Z,79.94
2022-09-26T10:18:23.623Z,80.34
2022-09-26T10:21:02.369Z,80.26
2022-09-26T10:23:46.653Z,80.47
2022-09-26T10:26:37.696Z,80.64
2022-09-26T10:29:23.407Z,80.50
2022-09-26T10:31:56.258Z,80.63
2022-09-26T10:34:31.991Z,81.11
2022-09-26T10:37:21.600Z,81.27
2022-09-26T10:40:16.544Z,81.10
2022-09-26T10:42:46.946Z,81.51
2022-09-26T10:45:27.135Z,81.27
2022-09-26T10:49:01.953Z,81.58
2022-09-26T10:51:55.414Z,81.66
2022-09-26T10:54:32.782Z,81.84
2022-09-26T10:57:00.763Z,81.80
2022-09-26T10:59:36.121Z,81.79
2022-09-26T11:02:04.327Z,81.75
2022-09-26T11:04:53.874Z,81.94
2022-09-26T11:07:52.963Z,81.79
2022-09-26T11:10:46.535Z,81.40
2022-09-26T11:13:26.850Z,81.62
2022-09-26T11:16:08.749Z,81.67
2022-09-26T11:18:42.934Z,82.04
2022-09-26T11:21:28.355Z,82.13
2022-09-26T11:24:11.589Z,82.32
2022-09-26T11:27:19.389Z,82.03
2022-09-26T11:29:53.083Z,82.08
2022-09-26T11:32:30.037Z,82.25
2022-09-26T11:35:03.483Z,82.22
2022-09-26T11:37:50.677Z,82.27
2022-09-26T11:40:39.194Z,82.07
2022-09-26T11:43:13.509Z,82.44
2022-09-26T11:46:15.085Z,82.15
2022-09-26T11:49:17.549Z,82.21
2022-09-26T11:52:33.570Z,82.10
2022-09-26T11:55:20.774Z,81.90
2022-09-26T11:57:56.043Z,82.21
2022-09-26T12:00:38.173Z,82.13
2022-09-26T12:03:37.750Z,81.94
2022-09-26T12:06:34.974Z,81.91
2022-09-26T12:09:20.732Z,82.14
2022-09-26T12:12:21.455Z,81.77
2022-09-26T12:15:11.322Z,81.93
2022-09-26T12:17:54.133Z,81.88
2022-09-26T12:20:34.922Z,81.77
2022-09-26T12:23:19.160Z,81.60
2022-09-26T12:26:25.952Z,81.55
2022-09-26T12:29:10.919Z,81.89
2022-09-26T12:32:02.824Z,82.18
2022-09-26T12:34:58.145Z,82.01
2022-09-26T12:37:42.557Z,82.34
2022-09-26T12:40:29.048Z,82.22
2022-09-26T12:43:13.867Z,81.95
2022-09-26T12:45:58.711Z,82.32
2022-09-26T12:48:42.074Z,82.58
2022-09-26T12:51:16.346Z,82.62
2022-09-26T12:54:05.717Z,82.23
2022-09-26T12:56:48.001Z,82.33
2022-09-26T12:59:35.280Z,82.62
2022-09-26T13:02:42.220Z,82.37
2022-09-26T13:05:15.408Z,82.31
2022-09-26T13:08:09.618Z,82.46
2022-09-26T13:10:38.109Z,82.72
2022-09-26T13:13:24.639Z,82.65
2022-09-26T13:16:25.409Z,82.50
2022-09-26T13:18:58.775Z,82.52
2022-09-26T13:21:47.410Z,82.46
2022-09-26T13:24:32.811Z,82.22
2022-09-26T13:27:20.061Z,82.30
2022-09-26T13:30:00.961Z,82.30
2022-09-26T13:32:49.973Z,81.80
2022-09-26T13:35:23.517Z,81.77
2022-09-26T13:38:08.262Z,81.63
2022-09-26T13:40:46.030Z,81.65
2022-09-26T13:43:20.360Z,81.25
2022-09-26T13:46:19.946Z,81.38
2022-09-26T13:49:13.481Z,81.20
2022-09-26T13:51:49.399Z,81.16
2022-09-26T13:54:27.125Z,81.35
2022-09-26T13:56:54.347Z,80.93
2022-09-26T13:59:21.239Z,80.93
2022-09-26T14:02:26.391Z,80.53
2022-09-26T14:05:13.830Z,80.57
2022-09-26T14:07:58.990Z,80.55
2022-09-26T14:10:43.171Z,80.43
2022-09-26T14:13:12.572Z,80.10
2022-09-26T14:15:48.091Z,80.29
2022-09-26T14:18:32.476Z,80.44
2022-09-26T14:21:16.577Z,80.32
2022-09-26T14:23:45.699Z,80.30
2022-09-26T14:26:26.969Z,80.43
2022-09-26T14:29:24.877Z,80.17
2022-09-26T14:32:10.274Z,80.20
2022-09-26T14:34:47.746Z,80.07
2022-09-26T14:37:26.323Z,79.92
2022-09-26T14:40:07.963Z,80.29
2022-09-26T14:42:43.467Z,80.42
2022-09-26T14:45:16.426Z,80.19
2022-09-26T14:47:55.004Z,80.31
2022-09-26T14:50:33.850Z,80.43
2022-09-26T14:53:09.869Z,80.74
2022-09-26T14:55:36.429Z,80.85
2022-09-26T14:58:15.854Z,80.77
2022-09-26T15:00:48.011Z,80.54
2022-09-26T15:03:17.710Z,80.59
2022-09-26T15:05:46.454Z,80.44
2022-09-26T15:08:27.721Z,80.30
2022-09-26T15:10:57.573Z,80.42
2022-09-26T15:13:34.291Z,80.13
2022-09-26T15:16:13.820Z,79.91
2022-09-26T15:18:44.981Z,79.93
2022-09-26T15:21:40.498Z,79.78
2022-09-26T15:24:32.804Z,79.33
2022-09-26T15:27:25.463Z,79.06
2022-09-26T15:29:57.911Z,79.44
2022-09-26T15:32:30.001Z,78.92
2022-09-26T15:34:57.190Z,78.87
2022-09-26T15:37:31.561Z,79.01
2022-09-26T15:40:12.216Z,78.20
2022-09-26T15:42:57.113Z,78.25
2022-09-26T15:45:32.876Z,77.93
2022-09-26T15:48:01.886Z,77.87
2022-09-26T15:50:41.916Z,77.53
2022-09-26T15:53:22.810Z,77.08
2022-09-26T15:56:03.474Z,76.55
2022-09-26T15:58:55.194Z,76.34
2022-09-26T16:01:25.601Z,76.08
2022-09-26T16:04:04.551Z,76.27
2022-09-26T16:06:35.270Z,75.89
2022-09-26T16:09:21.476Z,75.98
2022-09-26T16:11:57.786Z,76.06
2022-09-26T16:14:31.042Z,74.98
2022-09-26T16:17:32.407Z,74.97
2022-09-26T16:20:04.585Z,75.12
2022-09-26T16:22:36.797Z,75.24
2022-09-26T16:25:15.245Z,75.28
2022-09-26T16:27:42.553Z,75.19
2022-09-26T16:30:21.682Z,75.21
2022-09-26T16:32:48.173Z,75.37
2022-09-26T16:35:23.906Z,75.45
2022-09-26T16:38:23.102Z,75.30
2022-09-26T16:40:54.839Z,75.24
2022-09-26T16:43:29.308Z,75.51
2022-09-26T16:46:04.916Z,75.11
2022-09-26T16:48:34.656Z,75.22
2022-09-26T16:51:21.763Z,75.25
2022-09-26T16:54:19.290Z,75.71
2022-09-26T16:56:51.469Z,75.42
2022-09-26T16:59:28.721Z,75.54
2022-09-26T17:01:58.003Z,75.77
2022-09-26T17:04:31.238Z,75.62
2022-09-26T17:06:59.077Z,75.80
2022-09-26T17:09:29.616Z,75.65
2022-09-26T17:12:00.230Z,75.70
2022-09-26T17:14:30.259Z,75.90
2022-09-26T17:16:58.955Z,75.62
2022-09-26T17:19:29.551Z,75.74
2022-09-26T17:21:55.998Z,75.47
2022-09-26T17:24:25.503Z,75.85
2022-09-26T17:27:00.768Z,75.75
2022-09-26T17:29:30.370Z,76.24
2022-09-26T17:31:59.077Z,76.53
2022-09-26T17:34:28.274Z,76.79
2022-09-26T17:36:57.364Z,76.80
2022-09-26T17:39:27.188Z,77.00
2022-09-26T17:41:54.923Z,76.98
2022-09-26T17:44:21.895Z,77.05
2022-09-26T17:46:51.825Z,76.89
2022-09-26T17:49:29.991Z,77.08
2022-09-26T17:51:58.288Z,76.96
2022-09-26T17:54:30.116Z,77.09
2022-09-26T17:56:57.035Z,77.03
2022-09-26T17:59:24.932Z,77.15
2022-09-26T18:01:54.888Z,77.15
2022-09-26T18:04:28.521Z,77.21
2022-09-26T18:06:59.734Z,77.40
2022-09-26T18:09:35.108Z,77.26
2022-09-26T18:12:03.937Z,77.38
2022-09-26T18:14:33.157Z,77.50
2022-09-26T18:17:01.260Z,77.48
2022-09-26T18:19:27.738Z,77.54
2022-09-26T18:21:56.168Z,77.64
2022-09-26T18:24:27.197Z,77.64
2022-09-26T18:26:57.036Z,77.91
2022-09-26T18:29:31.920Z,77.77
2022-09-26T18:31:59.675Z,77.81
2022-09-26T18:34:26.120Z,77.49
2022-09-26T18:36:56.782Z,77.58
2022-09-26T18:39:24.907Z,77.48
2022-09-26T18:41:58.029Z,77.59
2022-09-26T18:44:24.857Z,77.54
2022-09-26T18:46:51.473Z,77.49
2022-09-26T18:49:18.053Z,77.14
2022-09-26T18:51:45.771Z,76.96
2022-09-26T18:54:14.632Z,77.24
2022-09-26T18:57:00.621Z,77.64
2022-09-26T18:59:30.803Z,77.98
2022-09-26T19:01:59.479Z,78.43
2022-09-26T19:04:26.257Z,78.41
2022-09-26T19:06:59.244Z,78.50
2022-09-26T19:09:30.623Z,78.14
2022-09-26T19:11:57.318Z,78.00
2022-09-26T19:14:26.254Z,78.03
2022-09-26T19:16:53.579Z,78.05
2022-09-26T19:19:21.361Z,78.33
2022-09-26T19:21:51.343Z,78.33
2022-09-26T19:24:36.635Z,78.58
2022-09-26T19:27:23.153Z,78.29
2022-09-26T19:30:10.673Z,78.34
2022-09-26T19:32:42.365Z,78.32
2022-09-26T19:35:25.827Z,78.24
2022-09-26T19:37:52.735Z,78.23
2022-09-26T19:40:21.253Z,78.18
2022-09-26T19:42:47.752Z,78.20
2022-09-26T19:45:15.081Z,77.98
2022-09-26T19:47:44.652Z,77.87
2022-09-26T19:50:21.403Z,78.46
2022-09-26T19:52:50.224Z,78.50
2022-09-26T19:55:21.200Z,78.21
2022-09-26T19:57:47.689Z,78.45
2022-09-26T20:00:14.631Z,78.34
2022-09-26T20:02:41.376Z,78.11
2022-09-26T20:05:21.623Z,77.97
2022-09-26T20:07:48.349Z,77.85
2022-09-26T20:10:20.186Z,77.58
2022-09-26T20:12:51.011Z,77.65
2022-09-26T20:15:20.290Z,77.67
2022-09-26T20:17:47.813Z,79.48
2022-09-26T20:20:17.002Z,77.98
2022-09-26T20:22:44.266Z,77.35
2022-09-26T20:25:26.608Z,77.40
2022-09-26T20:27:54.206Z,77.34
2022-09-26T20:30:39.403Z,77.27
2022-09-26T20:33:06.147Z,77.53
2022-09-26T20:35:36.681Z,77.52
2022-09-26T20:38:07.544Z,77.58
2022-09-26T20:40:35.255Z,77.79
2022-09-26T20:43:05.400Z,77.68
2022-09-26T20:45:38.210Z,77.77
2022-09-26T20:48:08.557Z,77.85
2022-09-26T20:50:38.349Z,77.76
2022-09-26T20:53:22.775Z,77.90
2022-09-26T20:55:50.164Z,77.74
2022-09-26T20:58:16.559Z,77.71
2022-09-26T21:00:44.467Z,77.73
2022-09-26T21:03:12.571Z,77.78
2022-09-26T21:05:39.223Z,77.75
2022-09-26T21:08:28.577Z,77.55
2022-09-26T21:10:56.023Z,77.78
2022-09-26T21:13:23.234Z,77.75
2022-09-26T21:15:50.403Z,77.86
2022-09-26T21:18:28.364Z,77.85
2022-09-26T21:21:03.886Z,77.25
2022-09-26T21:23:49.520Z,77.23
2022-09-26T21:26:18.553Z,76.84
2022-09-26T21:28:45.017Z,76.71
2022-09-26T21:31:20.663Z,76.97
2022-09-26T21:33:47.605Z,76.74
2022-09-26T21:36:14.234Z,76.05
2022-09-26T21:38:40.611Z,76.67
2022-09-26T21:41:09.270Z,76.62
2022-09-26T21:43:41.509Z,76.60
2022-09-26T21:46:08.168Z,76.63
2022-09-26T21:48:34.708Z,76.33
2022-09-26T21:51:03.126Z,76.31
2022-09-26T21:53:39.333Z,76.21
2022-09-26T21:56:14.599Z,76.09
2022-09-26T21:58:42.486Z,76.81
2022-09-26T22:01:09.237Z,76.52
2022-09-26T22:03:35.788Z,76.50
2022-09-26T22:06:07.356Z,76.73
2022-09-26T22:08:34.109Z,76.42
2022-09-26T22:11:00.521Z,76.52
2022-09-26T22:13:27.274Z,76.86
2022-09-26T22:15:53.733Z,76.49
2022-09-26T22:18:20.166Z,76.86
2022-09-26T22:20:46.559Z,76.45
2022-09-26T22:23:13.077Z,76.76
2022-09-26T22:25:42.821Z,77.12
2022-09-26T22:28:09.419Z,76.73
2022-09-26T22:30:39.018Z,76.78
2022-09-26T22:33:05.436Z,76.54
2022-09-26T22:35:31.798Z,76.72
2022-09-26T22:37:58.137Z,76.72
2022-09-26T22:40:24.524Z,76.94
2022-09-26T22:42:50.965Z,76.94
2022-09-26T22:45:17.790Z,77.19
2022-09-26T22:47:44.153Z,76.91
2022-09-26T22:50:10.537Z,77.00
2022-09-26T22:52:36.927Z,76.79
2022-09-26T22:55:03.643Z,77.02
2022-09-26T22:57:32.571Z,77.05
2022-09-26T22:59:58.926Z,77.00
2022-09-26T23:02:25.339Z,77.02
2022-09-26T23:04:51.753Z,77.09
2022-09-26T23:07:19.705Z,77.06
2022-09-26T23:09:46.283Z,77.14
2022-09-26T23:12:13.258Z,77.17
2022-09-26T23:14:39.830Z,77.44
2022-09-26T23:17:06.314Z,77.05
2022-09-26T23:19:32.719Z,77.17
2022-09-26T23:21:59.497Z,77.22
2022-09-26T23:24:25.866Z,76.98
2022-09-26T23:26:52.336Z,77.04
2022-09-26T23:29:18.969Z,77.09
2022-09-26T23:31:45.665Z,77.10
2022-09-26T23:34:12.093Z,76.85
2022-09-26T23:36:38.465Z,77.01
2022-09-26T23:39:04.840Z,76.42
2022-09-26T23:41:31.216Z,77.13
2022-09-26T23:43:57.632Z,76.46
2022-09-26T23:46:24.127Z,77.00
2022-09-26T23:48:50.599Z,76.76
2022-09-26T23:51:17.021Z,77.12
2022-09-26T23:53:43.517Z,76.89
2022-09-26T23:56:13.529Z,76.77
2022-09-26T23:58:40.869Z,76.59
